createdAt,value
2019-05-06T00:07:26.079Z,5.3
2019-05-06T00:24:01.089Z,5.3
2019-05-06T00:40:37.340Z,5.0
2019-05-06T00:57:10.855Z,5.0
2019-05-06T01:13:45.651Z,5.0
2019-05-06T01:30:20.423Z,5.0
2019-05-06T01:46:55.198Z,5.0
2019-05-06T02:03:29.988Z,4.6
2019-05-06T02:20:04.644Z,4.6
2019-05-06T02:36:39.323Z,4.6
2019-05-06T02:53:14.037Z,4.6
2019-05-06T03:09:48.559Z,4.3
2019-05-06T03:26:23.638Z,4.6
2019-05-06T03:42:57.763Z,4.6
2019-05-06T03:59:33.531Z,4.3
2019-05-06T04:16:06.548Z,4.0
2019-05-06T04:32:43.408Z,4.0
2019-05-06T04:49:15.408Z,4.3
2019-05-06T05:05:52.717Z,4.6
2019-05-06T05:22:24.479Z,5.0
2019-05-06T05:38:59.461Z,5.3
2019-05-06T05:55:34.605Z,5.6
2019-05-06T06:12:11.953Z,5.9
2019-05-06T06:28:46.028Z,6.2
2019-05-06T06:45:23.106Z,6.6
2019-05-06T06:55:22.403Z,7.2
2019-05-06T07:08:38.009Z,7.8
2019-05-06T19:38:51.451Z,8.2
2019-05-06T19:55:28.710Z,7.8
2019-05-06T20:12:05.978Z,7.8
2019-05-06T20:28:43.343Z,8.2
2019-05-06T20:45:22.343Z,8.2
2019-05-06T21:01:58.135Z,7.8
2019-05-06T21:18:35.457Z,7.8
2019-05-06T21:35:12.741Z,7.8
2019-05-06T21:51:50.123Z,7.8
2019-05-06T22:08:26.920Z,7.5
2019-05-06T22:25:03.572Z,7.5
2019-05-06T22:41:41.213Z,7.5
2019-05-06T22:58:16.915Z,7.5
2019-05-06T23:14:53.549Z,7.5
2019-05-06T23:31:30.056Z,7.2
2019-05-06T23:48:06.260Z,6.9
